sensor_id;sensor_type;location;lat;lon;timestamp;temperature;humidity
74081;SHT31;62438;52.228;6.864;2023-01-28T00:01:15;2.37;82.41
74081;SHT31;62438;52.228;6.864;2023-01-28T00:03:16;2.39;82.30
74081;SHT31;62438;52.228;6.864;2023-01-28T00:05:17;2.36;81.51
74081;SHT31;62438;52.228;6.864;2023-01-28T00:07:17;2.35;82.20
74081;SHT31;62438;52.228;6.864;2023-01-28T00:09:18;2.33;81.74
74081;SHT31;62438;52.228;6.864;2023-01-28T00:11:19;2.37;82.02
74081;SHT31;62438;52.228;6.864;2023-01-28T00:13:21;2.35;82.10
74081;SHT31;62438;52.228;6.864;2023-01-28T00:15:22;2.42;82.01
74081;SHT31;62438;52.228;6.864;2023-01-28T00:17:24;2.36;82.43
74081;SHT31;62438;52.228;6.864;2023-01-28T00:19:25;2.32;83.01
74081;SHT31;62438;52.228;6.864;2023-01-28T00:21:25;2.28;83.70
74081;SHT31;62438;52.228;6.864;2023-01-28T00:23:27;2.29;84.07
74081;SHT31;62438;52.228;6.864;2023-01-28T00:25:28;2.29;82.73
74081;SHT31;62438;52.228;6.864;2023-01-28T00:27:29;2.26;83.87
74081;SHT31;62438;52.228;6.864;2023-01-28T00:29:30;2.22;83.00
74081;SHT31;62438;52.228;6.864;2023-01-28T00:31:30;2.19;83.13
74081;SHT31;62438;52.228;6.864;2023-01-28T00:33:31;2.25;82.98
74081;SHT31;62438;52.228;6.864;2023-01-28T00:35:31;2.29;83.30
74081;SHT31;62438;52.228;6.864;2023-01-28T00:37:32;2.28;82.38
74081;SHT31;62438;52.228;6.864;2023-01-28T00:39:32;2.21;82.73
74081;SHT31;62438;52.228;6.864;2023-01-28T00:41:33;2.19;83.81
74081;SHT31;62438;52.228;6.864;2023-01-28T00:43:34;2.14;83.59
74081;SHT31;62438;52.228;6.864;2023-01-28T00:45:34;2.14;82.53
74081;SHT31;62438;52.228;6.864;2023-01-28T00:47:34;2.16;82.94
74081;SHT31;62438;52.228;6.864;2023-01-28T00:49:35;2.15;83.48
74081;SHT31;62438;52.228;6.864;2023-01-28T00:51:36;2.12;82.28
74081;SHT31;62438;52.228;6.864;2023-01-28T00:53:36;2.12;82.59
74081;SHT31;62438;52.228;6.864;2023-01-28T00:55:37;2.15;83.59
74081;SHT31;62438;52.228;6.864;2023-01-28T00:57:38;2.11;82.68
74081;SHT31;62438;52.228;6.864;2023-01-28T00:59:38;2.12;82.64
74081;SHT31;62438;52.228;6.864;2023-01-28T01:01:39;2.12;82.99
74081;SHT31;62438;52.228;6.864;2023-01-28T01:03:39;2.15;81.35
74081;SHT31;62438;52.228;6.864;2023-01-28T01:05:40;2.08;82.69
74081;SHT31;62438;52.228;6.864;2023-01-28T01:07:40;2.02;83.15
74081;SHT31;62438;52.228;6.864;2023-01-28T01:09:40;2.01;82.61
74081;SHT31;62438;52.228;6.864;2023-01-28T01:11:41;1.99;82.96
74081;SHT31;62438;52.228;6.864;2023-01-28T01:13:42;2.08;81.88
74081;SHT31;62438;52.228;6.864;2023-01-28T01:15:42;1.98;81.39
74081;SHT31;62438;52.228;6.864;2023-01-28T01:17:45;1.99;82.26
74081;SHT31;62438;52.228;6.864;2023-01-28T01:19:45;1.95;81.06
74081;SHT31;62438;52.228;6.864;2023-01-28T01:21:46;1.91;80.69
74081;SHT31;62438;52.228;6.864;2023-01-28T01:23:50;1.91;81.64
74081;SHT31;62438;52.228;6.864;2023-01-28T01:25:51;1.93;81.43
74081;SHT31;62438;52.228;6.864;2023-01-28T01:27:51;1.87;81.95
74081;SHT31;62438;52.228;6.864;2023-01-28T01:29:51;1.84;83.00
74081;SHT31;62438;52.228;6.864;2023-01-28T01:31:52;1.81;81.66
74081;SHT31;62438;52.228;6.864;2023-01-28T01:33:52;1.75;81.64
74081;SHT31;62438;52.228;6.864;2023-01-28T01:35:53;1.79;81.91
74081;SHT31;62438;52.228;6.864;2023-01-28T01:37:54;1.77;81.97
74081;SHT31;62438;52.228;6.864;2023-01-28T01:39:54;1.73;82.54
74081;SHT31;62438;52.228;6.864;2023-01-28T01:41:54;1.67;82.13
74081;SHT31;62438;52.228;6.864;2023-01-28T01:44:03;1.64;82.65
74081;SHT31;62438;52.228;6.864;2023-01-28T01:46:04;1.67;82.68
74081;SHT31;62438;52.228;6.864;2023-01-28T01:48:09;1.66;82.36
74081;SHT31;62438;52.228;6.864;2023-01-28T01:52:26;1.58;82.33
74081;SHT31;62438;52.228;6.864;2023-01-28T01:54:29;1.56;82.36
74081;SHT31;62438;52.228;6.864;2023-01-28T01:56:34;1.64;82.23
74081;SHT31;62438;52.228;6.864;2023-01-28T01:58:39;1.57;81.13
74081;SHT31;62438;52.228;6.864;2023-01-28T02:00:41;1.51;81.32
74081;SHT31;62438;52.228;6.864;2023-01-28T02:02:45;1.50;82.47
74081;SHT31;62438;52.228;6.864;2023-01-28T02:04:46;1.63;79.94
74081;SHT31;62438;52.228;6.864;2023-01-28T02:06:46;1.56;79.25
74081;SHT31;62438;52.228;6.864;2023-01-28T02:08:47;1.50;79.33
74081;SHT31;62438;52.228;6.864;2023-01-28T02:12:55;1.71;78.42
74081;SHT31;62438;52.228;6.864;2023-01-28T02:15:01;1.54;80.15
74081;SHT31;62438;52.228;6.864;2023-01-28T02:17:02;1.48;81.17
74081;SHT31;62438;52.228;6.864;2023-01-28T02:19:03;1.46;80.90
74081;SHT31;62438;52.228;6.864;2023-01-28T02:25:38;1.37;81.99
74081;SHT31;62438;52.228;6.864;2023-01-28T02:30:18;1.39;81.74
74081;SHT31;62438;52.228;6.864;2023-01-28T02:34:35;1.32;82.92
74081;SHT31;62438;52.228;6.864;2023-01-28T02:36:46;1.33;82.03
74081;SHT31;62438;52.228;6.864;2023-01-28T02:38:49;1.35;82.09
74081;SHT31;62438;52.228;6.864;2023-01-28T02:40:56;1.36;83.29
74081;SHT31;62438;52.228;6.864;2023-01-28T02:43:05;1.35;81.73
74081;SHT31;62438;52.228;6.864;2023-01-28T02:45:35;1.35;81.76
74081;SHT31;62438;52.228;6.864;2023-01-28T02:47:53;1.37;80.95
74081;SHT31;62438;52.228;6.864;2023-01-28T02:50:00;1.36;81.88
74081;SHT31;62438;52.228;6.864;2023-01-28T02:54:57;1.32;81.23
74081;SHT31;62438;52.228;6.864;2023-01-28T02:59:30;1.22;82.38
74081;SHT31;62438;52.228;6.864;2023-01-28T03:01:42;1.23;81.45
74081;SHT31;62438;52.228;6.864;2023-01-28T03:03:58;1.23;81.53
74081;SHT31;62438;52.228;6.864;2023-01-28T03:06:06;1.19;80.56
74081;SHT31;62438;52.228;6.864;2023-01-28T03:08:09;1.18;81.55
74081;SHT31;62438;52.228;6.864;2023-01-28T03:10:28;1.16;80.95
74081;SHT31;62438;52.228;6.864;2023-01-28T03:12:29;1.12;81.93
74081;SHT31;62438;52.228;6.864;2023-01-28T03:15:13;1.10;81.29
74081;SHT31;62438;52.228;6.864;2023-01-28T03:17:46;1.06;81.88
74081;SHT31;62438;52.228;6.864;2023-01-28T03:20:07;1.10;81.37
74081;SHT31;62438;52.228;6.864;2023-01-28T03:22:26;1.09;81.06
74081;SHT31;62438;52.228;6.864;2023-01-28T03:24:50;1.05;82.02
74081;SHT31;62438;52.228;6.864;2023-01-28T03:27:27;1.03;81.34
74081;SHT31;62438;52.228;6.864;2023-01-28T03:29:50;0.98;80.46
74081;SHT31;62438;52.228;6.864;2023-01-28T03:32:11;0.95;80.99
74081;SHT31;62438;52.228;6.864;2023-01-28T03:34:30;0.92;80.94
74081;SHT31;62438;52.228;6.864;2023-01-28T03:36:49;0.91;81.32
74081;SHT31;62438;52.228;6.864;2023-01-28T03:38:50;0.93;80.41
74081;SHT31;62438;52.228;6.864;2023-01-28T03:40:59;0.87;80.99
74081;SHT31;62438;52.228;6.864;2023-01-28T03:43:00;0.82;78.82
74081;SHT31;62438;52.228;6.864;2023-01-28T03:45:00;0.82;78.79
74081;SHT31;62438;52.228;6.864;2023-01-28T03:47:03;0.87;79.14
74081;SHT31;62438;52.228;6.864;2023-01-28T03:49:06;0.78;79.37
74081;SHT31;62438;52.228;6.864;2023-01-28T03:51:06;0.77;80.11
74081;SHT31;62438;52.228;6.864;2023-01-28T03:53:07;0.81;79.55
74081;SHT31;62438;52.228;6.864;2023-01-28T03:55:14;0.75;80.46
74081;SHT31;62438;52.228;6.864;2023-01-28T03:57:16;0.74;81.73
74081;SHT31;62438;52.228;6.864;2023-01-28T03:59:16;0.72;80.79
74081;SHT31;62438;52.228;6.864;2023-01-28T04:01:18;0.72;81.56
74081;SHT31;62438;52.228;6.864;2023-01-28T04:03:20;0.74;81.14
74081;SHT31;62438;52.228;6.864;2023-01-28T04:05:20;0.71;81.31
74081;SHT31;62438;52.228;6.864;2023-01-28T04:07:21;0.69;81.87
74081;SHT31;62438;52.228;6.864;2023-01-28T04:09:22;0.68;81.77
74081;SHT31;62438;52.228;6.864;2023-01-28T04:11:22;0.65;81.28
74081;SHT31;62438;52.228;6.864;2023-01-28T04:13:25;0.65;81.65
74081;SHT31;62438;52.228;6.864;2023-01-28T04:15:25;0.68;79.60
74081;SHT31;62438;52.228;6.864;2023-01-28T04:17:26;0.69;80.44
74081;SHT31;62438;52.228;6.864;2023-01-28T04:19:27;0.71;80.76
74081;SHT31;62438;52.228;6.864;2023-01-28T04:21:27;0.68;80.58
74081;SHT31;62438;52.228;6.864;2023-01-28T04:23:28;0.62;81.96
74081;SHT31;62438;52.228;6.864;2023-01-28T04:25:31;0.62;80.37
74081;SHT31;62438;52.228;6.864;2023-01-28T04:27:31;0.60;81.65
74081;SHT31;62438;52.228;6.864;2023-01-28T04:29:32;0.58;82.64
74081;SHT31;62438;52.228;6.864;2023-01-28T04:31:33;0.58;81.94
74081;SHT31;62438;52.228;6.864;2023-01-28T04:33:33;0.64;81.56
74081;SHT31;62438;52.228;6.864;2023-01-28T04:35:34;0.61;81.47
74081;SHT31;62438;52.228;6.864;2023-01-28T04:37:34;0.54;81.70
74081;SHT31;62438;52.228;6.864;2023-01-28T04:39:35;0.72;82.57
74081;SHT31;62438;52.228;6.864;2023-01-28T04:41:35;0.62;82.07
74081;SHT31;62438;52.228;6.864;2023-01-28T04:43:35;0.60;80.46
74081;SHT31;62438;52.228;6.864;2023-01-28T04:45:36;0.64;80.34
74081;SHT31;62438;52.228;6.864;2023-01-28T04:47:36;0.65;80.96
74081;SHT31;62438;52.228;6.864;2023-01-28T04:49:37;0.60;81.41
74081;SHT31;62438;52.228;6.864;2023-01-28T04:51:37;0.56;82.89
74081;SHT31;62438;52.228;6.864;2023-01-28T04:53:37;0.56;81.12
74081;SHT31;62438;52.228;6.864;2023-01-28T04:55:38;0.57;80.23
74081;SHT31;62438;52.228;6.864;2023-01-28T04:57:38;0.53;80.88
74081;SHT31;62438;52.228;6.864;2023-01-28T04:59:39;0.54;79.69
74081;SHT31;62438;52.228;6.864;2023-01-28T05:01:39;0.53;80.99
74081;SHT31;62438;52.228;6.864;2023-01-28T05:03:39;0.48;81.31
74081;SHT31;62438;52.228;6.864;2023-01-28T05:05:40;0.47;82.35
74081;SHT31;62438;52.228;6.864;2023-01-28T05:07:40;0.46;83.19
74081;SHT31;62438;52.228;6.864;2023-01-28T05:09:41;0.50;82.01
74081;SHT31;62438;52.228;6.864;2023-01-28T05:11:41;0.50;82.87
74081;SHT31;62438;52.228;6.864;2023-01-28T05:13:42;0.50;82.18
74081;SHT31;62438;52.228;6.864;2023-01-28T05:15:42;0.57;82.66
74081;SHT31;62438;52.228;6.864;2023-01-28T05:17:43;0.54;83.28
74081;SHT31;62438;52.228;6.864;2023-01-28T05:19:44;0.51;80.92
74081;SHT31;62438;52.228;6.864;2023-01-28T05:21:45;0.51;82.34
74081;SHT31;62438;52.228;6.864;2023-01-28T05:23:45;0.51;83.25
74081;SHT31;62438;52.228;6.864;2023-01-28T05:25:46;0.53;82.72
74081;SHT31;62438;52.228;6.864;2023-01-28T05:27:50;0.57;82.13
74081;SHT31;62438;52.228;6.864;2023-01-28T05:29:50;0.64;81.98
74081;SHT31;62438;52.228;6.864;2023-01-28T05:31:51;0.57;80.84
74081;SHT31;62438;52.228;6.864;2023-01-28T05:33:51;0.53;82.46
74081;SHT31;62438;52.228;6.864;2023-01-28T05:35:52;0.53;81.46
74081;SHT31;62438;52.228;6.864;2023-01-28T05:37:52;0.50;81.08
74081;SHT31;62438;52.228;6.864;2023-01-28T05:39:53;0.48;81.77
74081;SHT31;62438;52.228;6.864;2023-01-28T05:41:53;0.58;81.21
74081;SHT31;62438;52.228;6.864;2023-01-28T05:43:53;0.60;80.31
74081;SHT31;62438;52.228;6.864;2023-01-28T05:45:54;0.61;80.68
74081;SHT31;62438;52.228;6.864;2023-01-28T05:47:54;0.53;82.41
74081;SHT31;62438;52.228;6.864;2023-01-28T05:49:55;0.51;82.72
74081;SHT31;62438;52.228;6.864;2023-01-28T05:51:55;0.48;82.41
74081;SHT31;62438;52.228;6.864;2023-01-28T05:53:55;0.47;81.95
74081;SHT31;62438;52.228;6.864;2023-01-28T05:55:56;0.60;82.44
74081;SHT31;62438;52.228;6.864;2023-01-28T05:57:56;0.62;81.45
74081;SHT31;62438;52.228;6.864;2023-01-28T05:59:57;0.62;81.83
74081;SHT31;62438;52.228;6.864;2023-01-28T06:01:57;0.61;81.03
74081;SHT31;62438;52.228;6.864;2023-01-28T06:03:57;0.53;82.32
74081;SHT31;62438;52.228;6.864;2023-01-28T06:05:59;0.43;81.82
74081;SHT31;62438;52.228;6.864;2023-01-28T06:08:00;0.39;82.26
74081;SHT31;62438;52.228;6.864;2023-01-28T06:10:00;0.41;80.18
74081;SHT31;62438;52.228;6.864;2023-01-28T06:12:01;0.37;82.17
74081;SHT31;62438;52.228;6.864;2023-01-28T06:14:01;0.34;83.41
74081;SHT31;62438;52.228;6.864;2023-01-28T06:16:02;0.30;82.88
74081;SHT31;62438;52.228;6.864;2023-01-28T06:18:02;0.34;82.17
74081;SHT31;62438;52.228;6.864;2023-01-28T06:20:03;0.44;82.49
74081;SHT31;62438;52.228;6.864;2023-01-28T06:22:04;0.56;82.00
74081;SHT31;62438;52.228;6.864;2023-01-28T06:24:04;0.65;81.04
74081;SHT31;62438;52.228;6.864;2023-01-28T06:26:05;0.64;79.72
74081;SHT31;62438;52.228;6.864;2023-01-28T06:28:05;0.54;80.61
74081;SHT31;62438;52.228;6.864;2023-01-28T06:30:06;0.43;82.40
74081;SHT31;62438;52.228;6.864;2023-01-28T06:32:06;0.36;81.97
74081;SHT31;62438;52.228;6.864;2023-01-28T06:34:08;0.37;82.36
74081;SHT31;62438;52.228;6.864;2023-01-28T06:36:09;0.39;82.22
74081;SHT31;62438;52.228;6.864;2023-01-28T06:38:10;0.36;84.50
74081;SHT31;62438;52.228;6.864;2023-01-28T06:40:11;0.33;82.78
74081;SHT31;62438;52.228;6.864;2023-01-28T06:42:11;0.34;82.78
74081;SHT31;62438;52.228;6.864;2023-01-28T06:44:11;0.43;82.46
74081;SHT31;62438;52.228;6.864;2023-01-28T06:46:12;0.48;81.43
74081;SHT31;62438;52.228;6.864;2023-01-28T06:48:12;0.51;82.07
74081;SHT31;62438;52.228;6.864;2023-01-28T06:50:13;0.46;83.78
74081;SHT31;62438;52.228;6.864;2023-01-28T06:52:13;0.43;82.73
74081;SHT31;62438;52.228;6.864;2023-01-28T06:54:14;0.43;82.56
74081;SHT31;62438;52.228;6.864;2023-01-28T06:56:14;0.43;83.91
74081;SHT31;62438;52.228;6.864;2023-01-28T06:58:14;0.39;83.88
74081;SHT31;62438;52.228;6.864;2023-01-28T07:00:15;0.39;83.72
74081;SHT31;62438;52.228;6.864;2023-01-28T07:02:16;0.39;82.95
74081;SHT31;62438;52.228;6.864;2023-01-28T07:04:16;0.40;84.14
74081;SHT31;62438;52.228;6.864;2023-01-28T07:06:17;0.37;83.23
74081;SHT31;62438;52.228;6.864;2023-01-28T07:08:17;0.40;83.68
74081;SHT31;62438;52.228;6.864;2023-01-28T07:10:18;0.40;83.56
74081;SHT31;62438;52.228;6.864;2023-01-28T07:12:18;0.40;84.18
74081;SHT31;62438;52.228;6.864;2023-01-28T07:14:18;0.43;84.25
74081;SHT31;62438;52.228;6.864;2023-01-28T07:16:19;0.41;84.05
74081;SHT31;62438;52.228;6.864;2023-01-28T07:18:19;0.44;84.62
74081;SHT31;62438;52.228;6.864;2023-01-28T07:20:20;0.48;85.36
74081;SHT31;62438;52.228;6.864;2023-01-28T07:22:21;0.44;84.21
74081;SHT31;62438;52.228;6.864;2023-01-28T07:24:21;0.48;84.20
74081;SHT31;62438;52.228;6.864;2023-01-28T07:26:22;0.51;83.56
74081;SHT31;62438;52.228;6.864;2023-01-28T07:28:23;0.47;83.68
74081;SHT31;62438;52.228;6.864;2023-01-28T07:30:23;0.47;84.60
74081;SHT31;62438;52.228;6.864;2023-01-28T07:32:27;0.48;83.42
74081;SHT31;62438;52.228;6.864;2023-01-28T07:34:28;0.50;83.34
74081;SHT31;62438;52.228;6.864;2023-01-28T07:36:28;0.51;84.13
74081;SHT31;62438;52.228;6.864;2023-01-28T07:38:28;0.50;84.03
74081;SHT31;62438;52.228;6.864;2023-01-28T07:40:29;0.53;83.08
74081;SHT31;62438;52.228;6.864;2023-01-28T07:42:29;0.58;83.54
74081;SHT31;62438;52.228;6.864;2023-01-28T07:44:30;0.57;82.09
74081;SHT31;62438;52.228;6.864;2023-01-28T07:46:31;0.58;82.05
74081;SHT31;62438;52.228;6.864;2023-01-28T07:48:31;0.60;81.61
74081;SHT31;62438;52.228;6.864;2023-01-28T07:50:34;0.65;83.32
74081;SHT31;62438;52.228;6.864;2023-01-28T07:52:36;0.77;81.36
74081;SHT31;62438;52.228;6.864;2023-01-28T07:54:43;0.69;82.41
74081;SHT31;62438;52.228;6.864;2023-01-28T07:56:43;0.67;81.81
74081;SHT31;62438;52.228;6.864;2023-01-28T07:58:43;0.65;82.00
74081;SHT31;62438;52.228;6.864;2023-01-28T08:00:44;0.69;81.66
74081;SHT31;62438;52.228;6.864;2023-01-28T08:02:45;0.72;82.13
74081;SHT31;62438;52.228;6.864;2023-01-28T08:04:47;0.74;81.26
74081;SHT31;62438;52.228;6.864;2023-01-28T08:06:47;0.84;81.08
74081;SHT31;62438;52.228;6.864;2023-01-28T08:08:47;0.87;83.31
74081;SHT31;62438;52.228;6.864;2023-01-28T08:10:48;0.85;80.18
74081;SHT31;62438;52.228;6.864;2023-01-28T08:12:50;0.84;82.45
74081;SHT31;62438;52.228;6.864;2023-01-28T08:14:51;0.84;80.78
74081;SHT31;62438;52.228;6.864;2023-01-28T08:16:51;0.81;80.93
74081;SHT31;62438;52.228;6.864;2023-01-28T08:18:52;0.85;81.77
74081;SHT31;62438;52.228;6.864;2023-01-28T08:20:56;0.91;81.45
74081;SHT31;62438;52.228;6.864;2023-01-28T08:23:23;0.92;81.99
74081;SHT31;62438;52.228;6.864;2023-01-28T08:25:26;0.87;81.86
74081;SHT31;62438;52.228;6.864;2023-01-28T08:27:26;0.79;81.60
74081;SHT31;62438;52.228;6.864;2023-01-28T08:29:27;0.81;82.28
74081;SHT31;62438;52.228;6.864;2023-01-28T08:31:27;0.82;82.20
74081;SHT31;62438;52.228;6.864;2023-01-28T08:33:28;0.77;81.84
74081;SHT31;62438;52.228;6.864;2023-01-28T08:35:29;0.78;81.85
74081;SHT31;62438;52.228;6.864;2023-01-28T08:37:29;0.93;81.65
74081;SHT31;62438;52.228;6.864;2023-01-28T08:39:30;1.16;79.75
74081;SHT31;62438;52.228;6.864;2023-01-28T08:41:31;1.03;81.11
74081;SHT31;62438;52.228;6.864;2023-01-28T08:43:32;0.91;80.42
74081;SHT31;62438;52.228;6.864;2023-01-28T08:45:32;0.91;81.97
74081;SHT31;62438;52.228;6.864;2023-01-28T08:47:33;0.87;81.42
74081;SHT31;62438;52.228;6.864;2023-01-28T08:49:33;0.82;80.60
74081;SHT31;62438;52.228;6.864;2023-01-28T08:51:34;0.75;81.11
74081;SHT31;62438;52.228;6.864;2023-01-28T08:53:34;0.88;81.02
74081;SHT31;62438;52.228;6.864;2023-01-28T08:55:35;0.84;81.35
74081;SHT31;62438;52.228;6.864;2023-01-28T08:57:36;0.87;82.29
74081;SHT31;62438;52.228;6.864;2023-01-28T08:59:36;0.79;81.59
74081;SHT31;62438;52.228;6.864;2023-01-28T09:01:43;0.82;81.58
74081;SHT31;62438;52.228;6.864;2023-01-28T09:03:44;0.84;82.13
74081;SHT31;62438;52.228;6.864;2023-01-28T09:05:44;0.82;81.61
74081;SHT31;62438;52.228;6.864;2023-01-28T09:07:45;0.89;81.93
74081;SHT31;62438;52.228;6.864;2023-01-28T09:09:45;1.05;79.83
74081;SHT31;62438;52.228;6.864;2023-01-28T09:11:46;1.10;80.06
74081;SHT31;62438;52.228;6.864;2023-01-28T09:13:46;1.08;81.46
74081;SHT31;62438;52.228;6.864;2023-01-28T09:15:47;1.09;80.25
74081;SHT31;62438;52.228;6.864;2023-01-28T09:17:47;1.12;80.46
74081;SHT31;62438;52.228;6.864;2023-01-28T09:19:48;1.20;80.18
74081;SHT31;62438;52.228;6.864;2023-01-28T09:21:49;1.15;79.86
74081;SHT31;62438;52.228;6.864;2023-01-28T09:23:49;1.20;79.47
74081;SHT31;62438;52.228;6.864;2023-01-28T09:25:50;1.23;79.80
74081;SHT31;62438;52.228;6.864;2023-01-28T09:27:50;1.32;81.00
74081;SHT31;62438;52.228;6.864;2023-01-28T09:29:51;1.42;79.63
74081;SHT31;62438;52.228;6.864;2023-01-28T09:31:51;1.39;78.39
74081;SHT31;62438;52.228;6.864;2023-01-28T09:33:51;1.36;79.11
74081;SHT31;62438;52.228;6.864;2023-01-28T09:35:58;1.42;78.88
74081;SHT31;62438;52.228;6.864;2023-01-28T09:37:59;1.47;80.66
74081;SHT31;62438;52.228;6.864;2023-01-28T09:39:59;1.50;79.52
74081;SHT31;62438;52.228;6.864;2023-01-28T09:46:40;1.56;78.45
74081;SHT31;62438;52.228;6.864;2023-01-28T09:48:50;1.56;78.08
74081;SHT31;62438;52.228;6.864;2023-01-28T09:50:52;1.64;78.75
74081;SHT31;62438;52.228;6.864;2023-01-28T09:52:58;1.73;78.67
74081;SHT31;62438;52.228;6.864;2023-01-28T09:55:09;1.74;77.85
74081;SHT31;62438;52.228;6.864;2023-01-28T09:57:21;1.75;78.11
74081;SHT31;62438;52.228;6.864;2023-01-28T09:59:22;1.74;78.53
74081;SHT31;62438;52.228;6.864;2023-01-28T10:01:46;1.63;78.79
74081;SHT31;62438;52.228;6.864;2023-01-28T10:18:08;2.16;75.59
74081;SHT31;62438;52.228;6.864;2023-01-28T10:22:18;2.36;76.28
74081;SHT31;62438;52.228;6.864;2023-01-28T10:24:35;2.54;75.56
74081;SHT31;62438;52.228;6.864;2023-01-28T10:26:39;2.61;76.25
74081;SHT31;62438;52.228;6.864;2023-01-28T10:28:41;2.56;74.49
74081;SHT31;62438;52.228;6.864;2023-01-28T10:30:42;2.63;75.22
74081;SHT31;62438;52.228;6.864;2023-01-28T10:33:02;2.66;75.20
74081;SHT31;62438;52.228;6.864;2023-01-28T10:35:03;2.63;76.25
74081;SHT31;62438;52.228;6.864;2023-01-28T10:37:04;2.60;76.07
74081;SHT31;62438;52.228;6.864;2023-01-28T10:39:04;2.56;75.20
74081;SHT31;62438;52.228;6.864;2023-01-28T10:41:10;2.45;74.98
74081;SHT31;62438;52.228;6.864;2023-01-28T10:43:11;2.12;74.18
74081;SHT31;62438;52.228;6.864;2023-01-28T10:46:04;1.85;76.78
74081;SHT31;62438;52.228;6.864;2023-01-28T10:48:16;1.87;76.88
74081;SHT31;62438;52.228;6.864;2023-01-28T10:50:24;1.91;76.37
74081;SHT31;62438;52.228;6.864;2023-01-28T10:52:25;1.88;76.62
74081;SHT31;62438;52.228;6.864;2023-01-28T10:54:27;1.97;78.80
74081;SHT31;62438;52.228;6.864;2023-01-28T10:56:31;2.22;78.71
74081;SHT31;62438;52.228;6.864;2023-01-28T10:59:17;2.47;76.43
74081;SHT31;62438;52.228;6.864;2023-01-28T11:01:06;2.72;74.14
74081;SHT31;62438;52.228;6.864;2023-01-28T11:03:17;2.84;72.96
74081;SHT31;62438;52.228;6.864;2023-01-28T11:05:23;3.22;74.11
74081;SHT31;62438;52.228;6.864;2023-01-28T11:07:27;3.15;71.22
74081;SHT31;62438;52.228;6.864;2023-01-28T11:09:37;3.14;72.08
74081;SHT31;62438;52.228;6.864;2023-01-28T11:11:37;3.28;72.19
74081;SHT31;62438;52.228;6.864;2023-01-28T11:13:48;3.32;73.26
74081;SHT31;62438;52.228;6.864;2023-01-28T11:16:03;3.48;71.32
74081;SHT31;62438;52.228;6.864;2023-01-28T11:18:05;3.29;72.09
74081;SHT31;62438;52.228;6.864;2023-01-28T11:20:20;3.15;72.34
74081;SHT31;62438;52.228;6.864;2023-01-28T11:22:40;2.97;73.12
74081;SHT31;62438;52.228;6.864;2023-01-28T11:24:41;2.90;73.62
74081;SHT31;62438;52.228;6.864;2023-01-28T11:26:48;3.14;73.12
74081;SHT31;62438;52.228;6.864;2023-01-28T11:28:50;3.15;72.18
74081;SHT31;62438;52.228;6.864;2023-01-28T11:30:53;3.25;72.34
74081;SHT31;62438;52.228;6.864;2023-01-28T11:35:24;3.64;71.46
74081;SHT31;62438;52.228;6.864;2023-01-28T11:37:27;3.87;71.01
74081;SHT31;62438;52.228;6.864;2023-01-28T11:39:29;4.04;70.62
74081;SHT31;62438;52.228;6.864;2023-01-28T11:41:37;3.51;70.77
74081;SHT31;62438;52.228;6.864;2023-01-28T11:43:42;3.79;70.75
74081;SHT31;62438;52.228;6.864;2023-01-28T11:45:54;3.93;68.71
74081;SHT31;62438;52.228;6.864;2023-01-28T12:04:24;3.74;70.53
74081;SHT31;62438;52.228;6.864;2023-01-28T12:11:26;2.79;74.31
74081;SHT31;62438;52.228;6.864;2023-01-28T12:14:07;2.91;73.73
74081;SHT31;62438;52.228;6.864;2023-01-28T12:16:39;3.08;72.87
74081;SHT31;62438;52.228;6.864;2023-01-28T12:21:05;3.15;72.04
74081;SHT31;62438;52.228;6.864;2023-01-28T12:23:15;3.18;71.91
74081;SHT31;62438;52.228;6.864;2023-01-28T12:25:23;3.25;72.56
74081;SHT31;62438;52.228;6.864;2023-01-28T12:39:50;2.97;73.65
74081;SHT31;62438;52.228;6.864;2023-01-28T12:42:07;3.05;74.13
74081;SHT31;62438;52.228;6.864;2023-01-28T12:44:14;2.94;73.23
74081;SHT31;62438;52.228;6.864;2023-01-28T12:48:40;3.08;72.50
74081;SHT31;62438;52.228;6.864;2023-01-28T12:50:46;3.19;73.39
74081;SHT31;62438;52.228;6.864;2023-01-28T12:52:56;3.34;72.92
74081;SHT31;62438;52.228;6.864;2023-01-28T12:55:12;3.26;72.75
74081;SHT31;62438;52.228;6.864;2023-01-28T12:57:23;3.14;73.42
74081;SHT31;62438;52.228;6.864;2023-01-28T13:01:36;2.97;73.16
74081;SHT31;62438;52.228;6.864;2023-01-28T13:03:53;2.93;73.73
74081;SHT31;62438;52.228;6.864;2023-01-28T13:06:01;2.85;74.54
74081;SHT31;62438;52.228;6.864;2023-01-28T13:08:11;2.91;74.73
74081;SHT31;62438;52.228;6.864;2023-01-28T13:12:19;3.01;74.61
74081;SHT31;62438;52.228;6.864;2023-01-28T13:14:23;2.94;74.20
74081;SHT31;62438;52.228;6.864;2023-01-28T13:16:26;2.98;73.74
74081;SHT31;62438;52.228;6.864;2023-01-28T13:20:48;3.18;74.53
74081;SHT31;62438;52.228;6.864;2023-01-28T13:22:59;3.11;74.06
74081;SHT31;62438;52.228;6.864;2023-01-28T13:25:23;3.28;74.49
74081;SHT31;62438;52.228;6.864;2023-01-28T13:27:26;3.22;74.19
74081;SHT31;62438;52.228;6.864;2023-01-28T13:29:32;3.24;74.56
74081;SHT31;62438;52.228;6.864;2023-01-28T13:31:38;3.16;74.25
74081;SHT31;62438;52.228;6.864;2023-01-28T13:33:40;3.07;74.73
74081;SHT31;62438;52.228;6.864;2023-01-28T13:35:40;3.05;74.09
74081;SHT31;62438;52.228;6.864;2023-01-28T13:37:44;3.12;75.17
74081;SHT31;62438;52.228;6.864;2023-01-28T13:39:51;3.05;74.98
74081;SHT31;62438;52.228;6.864;2023-01-28T13:42:06;3.03;74.59
74081;SHT31;62438;52.228;6.864;2023-01-28T13:46:29;2.98;75.05
74081;SHT31;62438;52.228;6.864;2023-01-28T13:48:34;2.93;75.14
74081;SHT31;62438;52.228;6.864;2023-01-28T13:50:41;2.91;75.46
74081;SHT31;62438;52.228;6.864;2023-01-28T13:52:46;2.90;75.51
74081;SHT31;62438;52.228;6.864;2023-01-28T13:55:17;2.93;75.56
74081;SHT31;62438;52.228;6.864;2023-01-28T14:04:43;2.74;75.62
74081;SHT31;62438;52.228;6.864;2023-01-28T14:13:40;2.91;74.89
74081;SHT31;62438;52.228;6.864;2023-01-28T14:17:56;2.91;75.46
74081;SHT31;62438;52.228;6.864;2023-01-28T14:19:57;2.97;75.79
74081;SHT31;62438;52.228;6.864;2023-01-28T14:22:06;3.05;74.67
74081;SHT31;62438;52.228;6.864;2023-01-28T14:24:14;3.07;74.33
74081;SHT31;62438;52.228;6.864;2023-01-28T14:26:44;3.05;74.34
74081;SHT31;62438;52.228;6.864;2023-01-28T14:31:07;2.98;74.33
74081;SHT31;62438;52.228;6.864;2023-01-28T14:33:10;3.03;74.62
74081;SHT31;62438;52.228;6.864;2023-01-28T14:35:18;3.07;74.67
74081;SHT31;62438;52.228;6.864;2023-01-28T14:37:24;3.08;75.20
74081;SHT31;62438;52.228;6.864;2023-01-28T14:39:30;3.09;74.81
74081;SHT31;62438;52.228;6.864;2023-01-28T14:41:31;3.11;75.49
74081;SHT31;62438;52.228;6.864;2023-01-28T14:43:33;3.18;75.52
74081;SHT31;62438;52.228;6.864;2023-01-28T14:50:43;2.98;75.11
74081;SHT31;62438;52.228;6.864;2023-01-28T14:55:42;2.95;75.84
74081;SHT31;62438;52.228;6.864;2023-01-28T14:57:52;2.88;76.66
74081;SHT31;62438;52.228;6.864;2023-01-28T14:59:56;2.87;75.95
74081;SHT31;62438;52.228;6.864;2023-01-28T15:02:28;2.93;75.42
74081;SHT31;62438;52.228;6.864;2023-01-28T15:04:32;2.91;76.10
74081;SHT31;62438;52.228;6.864;2023-01-28T15:06:34;2.87;76.33
74081;SHT31;62438;52.228;6.864;2023-01-28T15:08:35;2.90;75.81
74081;SHT31;62438;52.228;6.864;2023-01-28T15:10:36;2.85;75.93
74081;SHT31;62438;52.228;6.864;2023-01-28T15:12:38;2.74;76.37